Terminal Aerodrome Forecast
Issued by NWS

Home | Current Version | Previous Version | Text Only | Print | Product List | Glossary On
Versions: 1 2 3 4 5 6 7 8 9 10 11 12 13 14 15
164
FTUS43 KUNR 190609 AAA
TAFGCC
TAF AMD
KGCC 190609Z 1906/2006 21020G30KT P6SM OVC250
     FM191400 23016KT P6SM OVC150
     FM192300 29006KT P6SM OVC200
     FM200500 32009KT P6SM OVC035=

USA.gov is the U.S. government's official web portal to all federal, state and local government web resources and services.